< < Back
Terminal Aerodrome Forecast


Current Version              Previous Versions:   1  2  3  4  5  6  7  8  9  

Terminal Aerodrome Forecast

364
FTUS44 KMRX 011720
TAFTYS
TAF
KTYS 011720Z 0118/0218 02008KT P6SM FEW050
     FM020200 00000KT P6SM SKC
     FM021500 05006KT P6SM SKC=

Latest METAR

854
SAUS80 KWBC 020400 RRA
MTRTYS
METAR KTYS 020353Z 04003KT 10SM SCT065 SCT090 23/19 A2999 RMK AO2 SLP142
T02330194


USA.gov is the U.S. government's official web portal to all federal, state and local government web resources and services.